Time;durP1;ratioP1;P1;durP2;ratioP2;P2;SDS_P1;SDS_P2;PMS_P1;PMS_P2;Temp;Humidity;BMP_temperature;BMP_pressure;BME280_temperature;BME280_humidity;BME280_pressure;Samples;Min_cycle;Max_cycle;Signal;HPM_P1;HPM_P2
2022/03/06 00:01:58;;;;;;;11.50;5.50;;;1.80;87.30;;;;;;4937929;29;20071;-81
2022/03/06 00:04:24;;;;;;;14.20;5.70;;;1.80;87.00;;;;;;4922132;29;20027;-79
2022/03/06 00:06:49;;;;;;;13.33;5.70;;;1.90;87.60;;;;;;4921393;29;20067;-80
2022/03/06 00:09:15;;;;;;;12.50;5.63;;;1.90;85.90;;;;;;4920729;29;20126;-79
2022/03/06 00:11:41;;;;;;;17.07;7.03;;;1.90;85.60;;;;;;4938285;29;20536;-79
2022/03/06 00:14:07;;;;;;;13.97;6.90;;;1.90;84.10;;;;;;4937718;29;20036;-81
2022/03/06 00:16:32;;;;;;;12.90;6.90;;;2.00;84.00;;;;;;4921149;29;20164;-79
2022/03/06 00:18:58;;;;;;;12.40;6.23;;;2.00;82.70;;;;;;4922181;29;20030;-80
2022/03/06 00:21:23;;;;;;;15.43;6.73;;;2.00;82.60;;;;;;4921215;29;20034;-80
2022/03/06 00:23:49;;;;;;;17.40;7.30;;;2.00;83.20;;;;;;4919991;29;20091;-80
2022/03/06 00:26:15;;;;;;;13.80;6.87;;;2.00;82.70;;;;;;4929336;29;20016;-78
2022/03/06 00:28:40;;;;;;;15.30;7.40;;;1.90;83.00;;;;;;4937485;29;20517;-80
2022/03/06 00:31:06;;;;;;;15.70;7.17;;;1.90;83.90;;;;;;4926950;29;20054;-79
2022/03/06 00:33:34;;;;;;;17.63;8.00;;;1.90;84.50;;;;;;4924047;29;20035;-80
2022/03/06 00:36:00;;;;;;;18.00;7.20;;;1.90;84.80;;;;;;4930633;29;20412;-78
2022/03/06 00:38:26;;;;;;;17.23;7.33;;;2.00;85.40;;;;;;4938501;29;20035;-78
2022/03/06 00:40:51;;;;;;;15.40;6.43;;;1.90;86.20;;;;;;4937877;29;20366;-78
2022/03/06 00:43:17;;;;;;;13.33;6.57;;;1.90;86.70;;;;;;4920133;29;20036;-79
2022/03/06 00:45:43;;;;;;;16.90;7.27;;;1.90;86.50;;;;;;4920698;29;20032;-79
2022/03/06 00:48:09;;;;;;;15.47;7.00;;;1.90;86.70;;;;;;4920140;29;20465;-78
2022/03/06 00:50:36;;;;;;;15.77;8.23;;;1.90;87.10;;;;;;4920216;29;20031;-79
2022/03/06 00:53:02;;;;;;;13.90;6.87;;;1.90;88.20;;;;;;4920234;29;20063;-79
2022/03/06 00:55:27;;;;;;;13.90;6.67;;;1.90;87.80;;;;;;4936924;29;20031;-78
2022/03/06 00:57:53;;;;;;;16.27;7.00;;;1.90;87.60;;;;;;4937109;29;20359;-77
2022/03/06 01:00:20;;;;;;;16.63;7.27;;;1.90;87.30;;;;;;4925653;29;20032;-78
2022/03/06 01:02:45;;;;;;;15.73;6.73;;;1.80;86.70;;;;;;4919612;29;20715;-78
2022/03/06 01:05:11;;;;;;;15.00;6.83;;;1.80;87.40;;;;;;4919220;29;20122;-78
2022/03/06 01:07:37;;;;;;;17.13;7.70;;;1.80;88.90;;;;;;4920234;29;20123;-78
2022/03/06 01:10:03;;;;;;;14.83;6.27;;;1.80;88.30;;;;;;4937354;29;20066;-78
2022/03/06 01:12:29;;;;;;;15.63;7.03;;;1.70;88.70;;;;;;4919443;29;20046;-78
2022/03/06 01:14:54;;;;;;;14.17;7.17;;;1.70;88.60;;;;;;4920460;29;20031;-78
2022/03/06 01:17:20;;;;;;;14.43;6.47;;;1.70;89.00;;;;;;4936555;29;20469;-78
2022/03/06 01:19:47;;;;;;;15.67;7.67;;;1.70;90.00;;;;;;4937178;29;20031;-80
2022/03/06 01:22:13;;;;;;;20.20;8.40;;;1.60;90.10;;;;;;4919844;29;20068;-79
2022/03/06 01:24:39;;;;;;;15.87;7.37;;;1.70;89.70;;;;;;4937007;29;20031;-79
2022/03/06 01:27:05;;;;;;;18.30;7.53;;;1.60;88.90;;;;;;4936757;29;20110;-78
2022/03/06 01:29:30;;;;;;;15.17;7.43;;;1.60;89.90;;;;;;4915523;29;20060;-79
2022/03/06 01:31:56;;;;;;;18.90;7.00;;;1.60;89.40;;;;;;4916355;29;20055;-79
2022/03/06 01:34:21;;;;;;;16.97;7.30;;;1.60;90.50;;;;;;4919557;29;20046;-80
2022/03/06 01:36:47;;;;;;;20.70;7.73;;;1.60;90.60;;;;;;4920271;29;20392;-80
2022/03/06 01:39:13;;;;;;;14.00;7.07;;;1.50;90.60;;;;;;4919457;29;20071;-79
2022/03/06 01:41:38;;;;;;;18.10;7.57;;;1.50;90.70;;;;;;4920034;29;20032;-80
2022/03/06 01:44:10;;;;;;;15.53;7.00;;;1.50;90.90;;;;;;4919512;29;20469;-80
2022/03/06 01:46:36;;;;;;;15.77;6.78;;;1.40;90.90;;;;;;4919793;29;20027;-80
2022/03/06 01:49:01;;;;;;;15.17;6.57;;;1.40;91.10;;;;;;4936662;29;20039;-79
2022/03/06 01:51:27;;;;;;;14.17;6.40;;;1.40;91.10;;;;;;4919176;29;20138;-80
2022/03/06 01:53:53;;;;;;;14.70;7.10;;;1.50;90.20;;;;;;4919975;29;20107;-79
2022/03/06 01:56:19;;;;;;;16.13;7.40;;;1.40;90.70;;;;;;4919294;29;20023;-80
2022/03/06 01:58:45;;;;;;;15.10;6.70;;;1.40;90.80;;;;;;4919852;29;20059;-80
2022/03/06 02:01:10;;;;;;;16.00;6.70;;;1.40;91.20;;;;;;4919353;29;20067;-81
2022/03/06 02:03:36;;;;;;;13.03;6.17;;;1.40;91.30;;;;;;4919832;29;20072;-79
2022/03/06 02:06:04;;;;;;;15.97;6.67;;;1.40;91.20;;;;;;4936179;29;20031;-78
2022/03/06 02:08:29;;;;;;;14.40;6.63;;;1.30;91.30;;;;;;4935673;29;20055;-79
2022/03/06 02:10:55;;;;;;;13.13;6.30;;;1.20;91.20;;;;;;4919415;29;20104;-80
2022/03/06 02:13:21;;;;;;;17.07;6.47;;;1.20;91.70;;;;;;4918765;29;20035;-80
2022/03/06 02:15:47;;;;;;;13.83;6.30;;;1.20;91.60;;;;;;4919352;29;20036;-80
2022/03/06 02:18:12;;;;;;;15.60;7.33;;;1.20;91.20;;;;;;4919052;29;20035;-80
2022/03/06 02:20:38;;;;;;;14.83;6.83;;;1.20;90.60;;;;;;4919613;29;20118;-81
2022/03/06 02:23:04;;;;;;;14.50;6.67;;;1.20;90.60;;;;;;4936481;29;20030;-81
2022/03/06 02:25:35;;;;;;;14.33;6.03;;;1.20;90.40;;;;;;4935535;29;20397;-80
2022/03/06 02:28:07;;;;;;;14.98;6.90;;;1.20;90.20;;;;;;4936053;29;20024;-80
2022/03/06 02:30:34;;;;;;;;;;;1.30;90.30;;;;;;4912127;29;20036;-79
2022/03/06 02:33:02;;;;;;;17.27;5.80;;;1.20;90.30;;;;;;4919437;29;19907;-80
2022/03/06 02:35:28;;;;;;;12.07;5.93;;;1.20;90.30;;;;;;4918541;29;20496;-80
2022/03/06 02:37:55;;;;;;;13.90;6.43;;;1.20;91.00;;;;;;4936535;29;20028;-80
2022/03/06 02:40:22;;;;;;;12.50;6.30;;;1.20;91.20;;;;;;4918485;29;20028;-78
2022/03/06 02:42:49;;;;;;;13.57;5.70;;;1.20;91.10;;;;;;4918991;29;20087;-80
2022/03/06 02:45:26;;;;;;;12.93;5.90;;;1.20;91.20;;;;;;4935521;29;20031;-80
2022/03/06 02:47:53;;;;;;;13.30;5.77;;;1.20;92.00;;;;;;4936458;29;20030;-80
2022/03/06 02:50:23;;;;;;;14.20;6.03;;;1.20;91.30;;;;;;4931259;29;20031;-80
2022/03/06 02:52:48;;;;;;;14.30;6.70;;;1.20;91.60;;;;;;4910508;29;20062;-80
2022/03/06 02:55:16;;;;;;;12.83;5.83;;;1.30;91.90;;;;;;4925181;29;20052;-79
2022/03/06 02:57:42;;;;;;;13.40;6.33;;;1.20;92.00;;;;;;4928336;29;20031;-80
2022/03/06 03:00:11;;;;;;;14.33;6.13;;;1.20;92.50;;;;;;4908061;29;20036;-79
2022/03/06 03:02:38;;;;;;;14.97;6.83;;;1.10;92.90;;;;;;4909606;29;20110;-79
2022/03/06 03:05:10;;;;;;;11.50;5.87;;;1.10;93.10;;;;;;4926587;29;20016;-80
2022/03/06 03:07:44;;;;;;;17.27;6.87;;;1.00;93.30;;;;;;4910245;29;20388;-81
2022/03/06 03:10:15;;;;;;;14.50;6.27;;;1.00;93.50;;;;;;4909255;29;20448;-79
2022/03/06 03:12:41;;;;;;;12.97;6.40;;;1.10;93.40;;;;;;4909270;29;20035;-79
2022/03/06 03:15:09;;;;;;;13.03;6.13;;;1.10;93.10;;;;;;4908342;29;20028;-80
2022/03/06 03:17:35;;;;;;;14.63;6.10;;;1.10;92.80;;;;;;4925594;29;20024;-80
2022/03/06 03:20:01;;;;;;;16.63;6.17;;;1.10;93.10;;;;;;4926213;29;20082;-80
2022/03/06 03:22:26;;;;;;;14.97;6.43;;;1.00;93.70;;;;;;4916617;29;20449;-79
2022/03/06 03:24:52;;;;;;;15.27;6.17;;;1.00;93.30;;;;;;4919446;29;20039;-80
2022/03/06 03:27:18;;;;;;;13.20;5.90;;;0.90;93.30;;;;;;4920865;29;20042;-80
2022/03/06 03:29:43;;;;;;;13.23;6.40;;;0.90;93.70;;;;;;4923354;29;20032;-80
2022/03/06 03:32:09;;;;;;;14.20;6.27;;;0.90;93.60;;;;;;4923368;29;20051;-80
2022/03/06 03:34:35;;;;;;;17.10;6.43;;;0.90;93.50;;;;;;4922971;29;20110;-80
2022/03/06 03:37:00;;;;;;;14.40;5.80;;;0.90;93.50;;;;;;4940690;29;20023;-80
2022/03/06 03:39:26;;;;;;;13.73;5.87;;;0.90;93.30;;;;;;4939372;29;20027;-80
2022/03/06 03:41:52;;;;;;;17.17;6.63;;;0.90;93.30;;;;;;4922955;29;20557;-80
2022/03/06 03:44:18;;;;;;;11.77;5.73;;;0.80;93.60;;;;;;4922619;29;20127;-79
2022/03/06 03:46:45;;;;;;;17.00;6.20;;;0.80;94.00;;;;;;4923236;29;20442;-79
2022/03/06 03:49:11;;;;;;;13.90;6.10;;;0.80;94.20;;;;;;4923114;29;20028;-80
2022/03/06 03:51:37;;;;;;;15.17;6.67;;;0.80;93.90;;;;;;4923006;29;20039;-80
2022/03/06 03:54:03;;;;;;;15.80;6.83;;;0.80;94.40;;;;;;4922763;29;20491;-80
2022/03/06 03:56:28;;;;;;;13.30;6.00;;;0.80;94.50;;;;;;4939002;29;20031;-80
2022/03/06 03:58:54;;;;;;;12.70;6.17;;;0.70;94.60;;;;;;4939683;29;20083;-79
2022/03/06 04:01:19;;;;;;;15.53;6.20;;;0.70;95.20;;;;;;4921990;29;20032;-79
2022/03/06 04:03:45;;;;;;;14.87;5.97;;;0.60;95.90;;;;;;4939378;29;20383;-79
2022/03/06 04:06:11;;;;;;;13.03;6.00;;;0.60;95.70;;;;;;4922494;29;20035;-80
2022/03/06 04:08:37;;;;;;;12.00;5.67;;;0.60;95.80;;;;;;4921816;29;20024;-79
2022/03/06 04:11:04;;;;;;;12.30;5.53;;;0.60;95.80;;;;;;4922162;29;20032;-79
2022/03/06 04:13:30;;;;;;;14.43;6.30;;;0.70;95.70;;;;;;4921559;29;20142;-79
2022/03/06 04:15:56;;;;;;;13.13;5.87;;;0.70;95.90;;;;;;4922017;29;20067;-79
2022/03/06 04:18:21;;;;;;;14.17;5.77;;;0.80;96.00;;;;;;4921479;29;20367;-79
2022/03/06 04:20:47;;;;;;;13.57;6.10;;;0.70;95.80;;;;;;4938980;29;20055;-79
2022/03/06 04:23:13;;;;;;;14.83;6.40;;;0.60;96.10;;;;;;4922002;29;20032;-79
2022/03/06 04:25:39;;;;;;;13.30;5.57;;;0.60;96.20;;;;;;4922180;29;20035;-79
2022/03/06 04:28:04;;;;;;;16.37;6.97;;;0.60;96.10;;;;;;4938977;29;20389;-79
2022/03/06 04:30:30;;;;;;;15.03;6.53;;;0.60;96.00;;;;;;4921102;29;20020;-78
2022/03/06 04:32:56;;;;;;;15.30;6.40;;;0.50;96.30;;;;;;4922046;29;20465;-78
2022/03/06 04:35:22;;;;;;;12.10;6.03;;;0.30;96.50;;;;;;4921187;29;20528;-78
2022/03/06 04:37:47;;;;;;;14.47;6.17;;;0.30;96.70;;;;;;4921541;29;20119;-78
2022/03/06 04:40:13;;;;;;;14.43;6.37;;;0.20;97.40;;;;;;4921720;29;20082;-79
2022/03/06 04:42:40;;;;;;;13.33;5.93;;;0.10;97.60;;;;;;4921237;29;20039;-79
2022/03/06 04:45:06;;;;;;;12.33;6.17;;;0.20;97.60;;;;;;4921567;29;20036;-79
2022/03/06 04:47:32;;;;;;;13.87;6.07;;;0.10;97.40;;;;;;4921071;29;20050;-78
2022/03/06 04:50:00;;;;;;;13.90;6.47;;;0.10;97.40;;;;;;4938444;29;20410;-79
2022/03/06 04:52:26;;;;;;;14.37;6.37;;;0.10;97.40;;;;;;4920986;29;20469;-78
2022/03/06 04:54:52;;;;;;;16.03;6.80;;;0.10;97.50;;;;;;4921406;29;20072;-79
2022/03/06 04:57:17;;;;;;;14.20;6.00;;;0.10;97.50;;;;;;4920899;29;20391;-78
2022/03/06 04:59:43;;;;;;;14.03;6.07;;;0.10;97.60;;;;;;4938232;29;20059;-78
2022/03/06 05:02:09;;;;;;;15.33;6.37;;;0.10;97.80;;;;;;4921394;29;20091;-78
2022/03/06 05:04:34;;;;;;;14.27;6.00;;;0.00;97.70;;;;;;4937563;29;20032;-78
2022/03/06 05:07:00;;;;;;;13.43;6.80;;;-0.10;98.30;;;;;;4921256;29;20059;-78
2022/03/06 05:09:26;;;;;;;11.27;5.70;;;0.00;98.00;;;;;;4937366;29;20035;-79
2022/03/06 05:11:51;;;;;;;14.50;6.23;;;0.00;97.90;;;;;;4920772;29;20036;-78
2022/03/06 05:14:17;;;;;;;13.90;5.87;;;0.00;97.80;;;;;;4920159;29;20178;-79
2022/03/06 05:16:43;;;;;;;13.57;6.30;;;-0.10;98.30;;;;;;4920873;29;20039;-78
2022/03/06 05:19:09;;;;;;;13.23;6.37;;;-0.20;98.30;;;;;;4920887;29;20028;-78
2022/03/06 05:21:36;;;;;;;13.57;5.70;;;-0.20;98.40;;;;;;4920337;29;20035;-79
2022/03/06 05:24:01;;;;;;;13.47;5.97;;;-0.20;98.30;;;;;;4920792;29;20039;-78
2022/03/06 05:26:27;;;;;;;12.80;5.87;;;-0.20;98.30;;;;;;4937075;29;20384;-78
2022/03/06 05:28:53;;;;;;;13.10;5.77;;;-0.10;98.30;;;;;;4920633;29;20487;-80
2022/03/06 05:31:19;;;;;;;13.13;5.87;;;-0.10;98.20;;;;;;4936913;29;20062;-79
2022/03/06 05:33:45;;;;;;;15.50;6.13;;;-0.10;98.20;;;;;;4920964;29;20034;-80
2022/03/06 05:36:10;;;;;;;17.07;6.53;;;-0.10;98.40;;;;;;4937814;29;20031;-80
2022/03/06 05:38:36;;;;;;;15.97;6.60;;;-0.20;98.50;;;;;;4920486;29;20095;-81
2022/03/06 05:41:02;;;;;;;15.80;6.07;;;-0.20;98.70;;;;;;4920897;29;20031;-80
2022/03/06 05:43:28;;;;;;;17.50;6.97;;;-0.20;98.70;;;;;;4920106;29;20118;-80
2022/03/06 05:45:54;;;;;;;14.80;6.70;;;-0.20;98.80;;;;;;4937895;29;20064;-80
2022/03/06 05:48:21;;;;;;;15.77;6.00;;;-0.30;99.00;;;;;;4937449;29;20028;-79
2022/03/06 05:50:47;;;;;;;14.67;5.93;;;-0.30;99.00;;;;;;4920151;29;20036;-80
2022/03/06 05:53:13;;;;;;;15.77;6.90;;;-0.30;99.20;;;;;;4937256;29;20492;-80
2022/03/06 05:55:39;;;;;;;17.93;7.47;;;-0.30;99.40;;;;;;4936957;29;20036;-80
2022/03/06 05:58:04;;;;;;;16.03;6.60;;;-0.20;99.40;;;;;;4920745;29;20028;-80
2022/03/06 06:00:30;;;;;;;16.00;6.50;;;-0.20;99.30;;;;;;4920540;29;20032;-80
2022/03/06 06:02:56;;;;;;;14.60;6.30;;;-0.10;99.20;;;;;;4937482;29;20028;-80
2022/03/06 06:05:22;;;;;;;19.10;7.30;;;-0.10;99.10;;;;;;4936740;29;20036;-79
2022/03/06 06:07:48;;;;;;;18.70;6.97;;;-0.10;99.10;;;;;;4920244;29;20024;-80
2022/03/06 06:10:14;;;;;;;15.07;6.60;;;-0.10;99.20;;;;;;4937143;29;20028;-78
2022/03/06 06:12:40;;;;;;;17.07;7.80;;;-0.10;99.30;;;;;;4919208;29;20465;-79
2022/03/06 06:15:06;;;;;;;15.83;7.10;;;0.00;99.40;;;;;;4920105;29;20031;-79
2022/03/06 06:17:32;;;;;;;16.17;6.93;;;0.00;99.70;;;;;;4918994;29;20031;-78
2022/03/06 06:20:00;;;;;;;20.73;8.30;;;0.10;99.90;;;;;;4936823;29;20098;-79
2022/03/06 06:22:28;;;;;;;17.03;6.70;;;0.00;99.90;;;;;;4919241;29;20035;-79
2022/03/06 06:24:54;;;;;;;15.93;6.53;;;0.10;99.90;;;;;;4919586;29;20028;-78
2022/03/06 06:27:20;;;;;;;15.57;6.30;;;0.10;99.40;;;;;;4936734;29;20035;-78
2022/03/06 06:29:45;;;;;;;12.77;5.97;;;0.10;99.60;;;;;;4919186;29;20028;-78
2022/03/06 06:32:11;;;;;;;13.83;6.80;;;0.10;99.90;;;;;;4919292;29;20048;-78
2022/03/06 06:34:37;;;;;;;16.20;7.17;;;0.20;99.90;;;;;;4918634;29;20030;-78
2022/03/06 06:37:02;;;;;;;16.03;6.73;;;0.20;99.90;;;;;;4919290;29;20028;-78
2022/03/06 06:39:28;;;;;;;13.17;6.20;;;0.20;99.90;;;;;;4918612;29;20095;-78
2022/03/06 06:41:54;;;;;;;13.40;6.47;;;0.20;99.90;;;;;;4919153;29;20465;-78
2022/03/06 06:44:19;;;;;;;14.70;5.60;;;0.20;99.80;;;;;;4919086;29;20531;-78
2022/03/06 06:46:45;;;;;;;15.20;6.43;;;0.20;99.90;;;;;;4935676;29;20028;-78
2022/03/06 06:49:11;;;;;;;15.53;6.47;;;0.30;99.90;;;;;;4919425;29;20031;-78
2022/03/06 06:51:38;;;;;;;15.47;6.13;;;0.30;99.90;;;;;;4918904;29;20461;-79
2022/03/06 06:54:05;;;;;;;18.37;8.00;;;0.20;99.90;;;;;;4919349;29;20027;-79
2022/03/06 06:56:31;;;;;;;17.30;7.87;;;0.30;99.90;;;;;;4935749;29;20027;-78
2022/03/06 06:58:57;;;;;;;17.33;7.37;;;0.30;99.70;;;;;;4919166;29;20032;-79
2022/03/06 07:01:23;;;;;;;15.80;7.07;;;0.30;99.70;;;;;;4918150;29;20441;-79
2022/03/06 07:03:48;;;;;;;14.27;7.53;;;0.40;99.70;;;;;;4936117;29;20102;-79
2022/03/06 07:06:14;;;;;;;16.07;7.37;;;0.40;99.90;;;;;;4919656;29;20143;-79
2022/03/06 07:08:40;;;;;;;15.03;6.97;;;0.40;99.90;;;;;;4935736;29;20453;-80
2022/03/06 07:11:06;;;;;;;15.87;7.33;;;0.50;99.80;;;;;;4919149;29;20087;-79
2022/03/06 07:13:32;;;;;;;17.40;7.63;;;0.60;99.70;;;;;;4918651;29;20511;-79
2022/03/06 07:15:58;;;;;;;18.13;7.60;;;0.60;99.60;;;;;;4919004;29;20030;-80
2022/03/06 07:18:24;;;;;;;19.83;8.17;;;0.70;99.60;;;;;;4919085;29;20465;-78
2022/03/06 07:20:49;;;;;;;21.53;7.90;;;0.70;99.60;;;;;;4919478;29;20122;-79
2022/03/06 07:23:15;;;;;;;16.30;7.30;;;0.70;99.80;;;;;;4919147;29;20059;-79
2022/03/06 07:25:41;;;;;;;14.90;7.60;;;0.70;99.90;;;;;;4918669;29;20369;-79
2022/03/06 07:28:07;;;;;;;18.20;7.37;;;0.70;99.90;;;;;;4919053;29;20032;-79
2022/03/06 07:30:33;;;;;;;14.97;7.57;;;0.80;99.90;;;;;;4918431;29;20032;-79
2022/03/06 07:33:00;;;;;;;16.93;7.60;;;0.80;99.90;;;;;;4936164;29;20034;-79
2022/03/06 07:35:26;;;;;;;18.00;7.70;;;0.80;99.90;;;;;;4918511;29;20484;-78
2022/03/06 07:37:52;;;;;;;16.47;7.60;;;0.80;99.90;;;;;;4918793;29;20040;-79
2022/03/06 07:40:20;;;;;;;17.20;7.43;;;0.90;99.90;;;;;;4919086;29;20062;-80
2022/03/06 07:42:46;;;;;;;22.30;7.27;;;0.90;99.90;;;;;;4918102;29;20039;-80
2022/03/06 07:45:13;;;;;;;15.20;7.70;;;1.00;99.90;;;;;;4919038;29;20051;-78
2022/03/06 07:47:39;;;;;;;16.70;7.13;;;1.00;99.90;;;;;;4917788;29;20079;-78
2022/03/06 07:50:07;;;;;;;15.53;6.93;;;1.10;99.90;;;;;;4935387;29;20381;-78
2022/03/06 07:52:33;;;;;;;16.70;7.97;;;1.10;99.90;;;;;;4918037;29;20047;-78
2022/03/06 07:54:59;;;;;;;13.13;6.90;;;1.20;99.90;;;;;;4918533;29;20126;-79
2022/03/06 07:57:25;;;;;;;15.13;7.70;;;1.30;99.90;;;;;;4918511;29;20111;-78
2022/03/06 07:59:50;;;;;;;16.53;7.23;;;1.30;99.90;;;;;;4917961;29;20034;-78
2022/03/06 08:02:16;;;;;;;14.13;7.03;;;1.40;99.90;;;;;;4918492;29;20039;-79
2022/03/06 08:04:42;;;;;;;17.10;7.83;;;1.50;99.90;;;;;;4935022;29;20381;-79
2022/03/06 08:07:07;;;;;;;17.20;7.13;;;1.60;99.90;;;;;;4918559;29;20028;-79
2022/03/06 08:09:33;;;;;;;16.40;6.97;;;1.80;99.90;;;;;;4918091;29;20027;-79
2022/03/06 08:12:00;;;;;;;14.10;6.90;;;2.00;99.90;;;;;;4918009;29;20067;-79
2022/03/06 08:14:29;;;;;;;15.27;7.20;;;2.10;99.90;;;;;;4922186;29;20039;-79
2022/03/06 08:16:55;;;;;;;13.50;6.23;;;2.20;99.90;;;;;;4938817;29;20554;-79
2022/03/06 08:19:21;;;;;;;15.90;7.37;;;2.20;99.50;;;;;;4938350;29;20106;-80
2022/03/06 08:21:48;;;;;;;13.27;6.87;;;2.30;99.40;;;;;;4920994;29;20090;-79
2022/03/06 08:24:14;;;;;;;18.87;8.90;;;2.40;99.30;;;;;;4938674;29;20031;-79
2022/03/06 08:26:40;;;;;;;15.00;7.33;;;2.50;99.20;;;;;;4938247;29;20027;-79
2022/03/06 08:29:05;;;;;;;15.93;7.00;;;2.50;98.80;;;;;;4921912;29;20034;-79
2022/03/06 08:31:31;;;;;;;15.03;7.10;;;2.60;98.90;;;;;;4920909;29;20052;-78
2022/03/06 08:33:57;;;;;;;14.77;6.53;;;2.60;98.30;;;;;;4921570;29;20507;-79
2022/03/06 08:36:23;;;;;;;13.87;7.10;;;2.70;98.50;;;;;;4921639;29;20027;-79
2022/03/06 08:38:48;;;;;;;13.60;6.87;;;2.80;98.60;;;;;;4920921;29;20062;-79
2022/03/06 08:41:14;;;;;;;14.07;6.57;;;2.90;97.60;;;;;;4938380;29;20036;-79
2022/03/06 08:43:39;;;;;;;16.93;7.43;;;3.00;97.70;;;;;;4938143;29;20424;-79
2022/03/06 08:46:05;;;;;;;13.80;7.00;;;3.10;97.50;;;;;;4921468;29;20032;-79
2022/03/06 08:48:31;;;;;;;14.90;7.10;;;3.10;97.50;;;;;;4937551;29;20405;-78
2022/03/06 08:50:57;;;;;;;14.47;7.53;;;3.10;97.70;;;;;;4921157;29;20032;-78
2022/03/06 08:53:23;;;;;;;15.87;6.67;;;3.20;97.00;;;;;;4921259;29;20023;-78
2022/03/06 08:55:49;;;;;;;14.30;6.70;;;3.30;96.60;;;;;;4937458;29;20227;-78
2022/03/06 08:58:14;;;;;;;14.10;6.90;;;3.30;95.90;;;;;;4921354;29;20035;-78
2022/03/06 09:00:40;;;;;;;13.73;6.57;;;3.30;95.40;;;;;;4932982;29;20474;-78
2022/03/06 09:03:06;;;;;;;17.73;7.20;;;3.30;95.90;;;;;;4921053;29;20035;-80
2022/03/06 09:05:40;;;;;;;16.13;7.20;;;3.40;96.40;;;;;;4938242;29;20020;-79
2022/03/06 09:08:07;;;;;;;15.33;7.13;;;3.50;95.10;;;;;;4922981;29;20078;-78
2022/03/06 09:10:34;;;;;;;17.37;7.47;;;3.60;95.70;;;;;;4917812;29;20127;-78
2022/03/06 09:13:00;;;;;;;13.63;6.73;;;3.70;95.90;;;;;;4903185;29;20434;-78
2022/03/06 09:15:26;;;;;;;15.07;7.40;;;3.60;95.10;;;;;;4920712;29;20229;-79
2022/03/06 09:17:52;;;;;;;18.30;7.60;;;3.60;95.80;;;;;;4902863;29;20127;-79
2022/03/06 09:20:18;;;;;;;13.20;7.03;;;3.70;95.10;;;;;;4903910;29;20064;-79
2022/03/06 09:22:44;;;;;;;15.90;7.73;;;3.80;95.30;;;;;;4918813;29;20449;-79
2022/03/06 09:25:10;;;;;;;18.30;8.00;;;3.80;94.20;;;;;;4901149;29;20028;-79
2022/03/06 09:27:36;;;;;;;15.40;7.63;;;3.90;94.50;;;;;;4902657;29;20397;-80
2022/03/06 09:30:04;;;;;;;16.20;7.80;;;3.90;93.90;;;;;;4902603;29;20032;-78
2022/03/06 09:32:29;;;;;;;16.13;7.67;;;4.10;93.50;;;;;;4921260;29;20188;-79
2022/03/06 09:34:55;;;;;;;15.23;7.77;;;4.10;93.30;;;;;;4902222;29;20064;-79
2022/03/06 09:37:20;;;;;;;15.70;7.57;;;4.10;92.70;;;;;;4901880;29;20035;-80
2022/03/06 09:39:46;;;;;;;17.07;7.90;;;4.20;92.00;;;;;;4901169;29;20032;-80
2022/03/06 09:42:11;;;;;;;15.23;7.83;;;4.20;93.20;;;;;;4921343;29;20367;-80
2022/03/06 09:44:37;;;;;;;20.93;9.30;;;4.30;93.50;;;;;;4917630;29;20071;-79
2022/03/06 09:47:05;;;;;;;15.30;7.00;;;4.30;92.80;;;;;;4902371;29;20051;-79
2022/03/06 09:49:31;;;;;;;18.57;8.20;;;4.40;92.70;;;;;;4902106;29;20142;-79
2022/03/06 09:51:57;;;;;;;14.87;7.97;;;4.50;91.90;;;;;;4915071;29;20129;-79
2022/03/06 09:54:22;;;;;;;17.93;8.47;;;4.60;92.40;;;;;;4937946;29;20028;-78
2022/03/06 09:56:48;;;;;;;15.03;8.13;;;4.60;91.50;;;;;;4936363;29;20443;-78
2022/03/06 09:59:14;;;;;;;16.83;8.13;;;4.70;90.60;;;;;;4936856;29;20032;-78
2022/03/06 10:01:40;;;;;;;14.97;7.50;;;4.70;90.10;;;;;;4918586;29;20039;-78
2022/03/06 10:04:24;;;;;;;16.47;8.10;;;4.80;90.20;;;;;;4919900;29;20031;-78
2022/03/06 10:07:03;;;;;;;15.57;6.90;;;4.80;89.80;;;;;;4918773;29;20581;-78
2022/03/06 10:09:31;;;;;;;13.90;6.40;;;5.00;84.90;;;;;;4921304;29;20509;-78
2022/03/06 10:11:56;;;;;;;14.50;7.03;;;5.10;84.00;;;;;;4918549;29;20203;-78
2022/03/06 10:14:41;;;;;;;20.03;6.80;;;5.10;76.70;;;;;;4920559;29;20039;-78
2022/03/06 10:17:28;;;;;;;13.10;6.57;;;5.10;74.40;;;;;;4919968;29;20098;-78
2022/03/06 10:19:55;;;;;;;14.13;6.53;;;5.20;74.80;;;;;;4936286;29;20027;-78
2022/03/06 10:22:24;;;;;;;12.40;6.30;;;5.40;75.30;;;;;;4910115;29;20091;-78
2022/03/06 10:24:59;;;;;;;12.23;6.10;;;5.40;72.00;;;;;;4921495;29;20031;-78
2022/03/06 10:27:46;;;;;;;13.23;6.37;;;5.40;71.10;;;;;;4910648;29;20023;-77
2022/03/06 10:30:27;;;;;;;12.77;6.13;;;5.50;69.50;;;;;;4907453;29;20055;-78
2022/03/06 10:32:55;;;;;;;12.00;6.40;;;5.60;70.40;;;;;;4912560;29;20488;-79
2022/03/06 10:35:39;;;;;;;12.03;5.80;;;5.70;65.50;;;;;;4929295;29;20027;-79
2022/03/06 10:38:18;;;;;;;11.40;5.90;;;5.80;63.00;;;;;;4910531;29;20079;-78
2022/03/06 10:40:44;;;;;;;11.30;5.57;;;6.10;62.50;;;;;;4913091;29;20024;-78
2022/03/06 10:43:30;;;;;;;9.83;5.00;;;6.30;64.10;;;;;;4910233;29;20118;-79
2022/03/06 10:46:08;;;;;;;11.90;5.63;;;6.40;59.30;;;;;;4904815;29;20039;-78
2022/03/06 10:48:34;;;;;;;13.03;5.73;;;6.50;57.20;;;;;;4912784;29;20028;-79
2022/03/06 10:51:04;;;;;;;9.00;5.07;;;6.60;58.70;;;;;;4906903;29;20036;-79
2022/03/06 10:53:30;;;;;;;10.47;5.27;;;6.60;59.30;;;;;;4905415;29;20039;-79
2022/03/06 10:56:12;;;;;;;10.20;5.40;;;6.60;58.30;;;;;;4911900;29;20031;-78
2022/03/06 10:58:42;;;;;;;10.02;4.82;;;6.70;56.00;;;;;;4907755;29;20031;-78
2022/03/06 11:01:08;;;;;;;9.97;5.20;;;6.60;54.70;;;;;;4909980;29;20039;-79
2022/03/06 11:03:35;;;;;;;9.23;5.27;;;6.30;55.70;;;;;;4909688;29;20032;-79
2022/03/06 11:06:05;;;;;;;11.03;6.10;;;6.20;56.20;;;;;;4909225;29;20028;-78
2022/03/06 11:08:32;;;;;;;9.90;5.47;;;6.20;56.90;;;;;;4912042;29;20552;-78
2022/03/06 11:10:59;;;;;;;9.50;5.47;;;6.30;56.00;;;;;;4901416;29;20394;-79
2022/03/06 11:13:26;;;;;;;9.83;5.40;;;6.40;55.80;;;;;;4914099;29;20082;-78
2022/03/06 11:15:52;;;;;;;11.73;5.80;;;6.50;54.00;;;;;;4926914;29;20032;-78
2022/03/06 11:18:19;;;;;;;9.03;5.07;;;6.60;54.90;;;;;;4917170;29;20424;-78
2022/03/06 11:20:46;;;;;;;9.13;5.20;;;6.70;55.30;;;;;;4934023;29;20024;-78
2022/03/06 11:23:42;;;;;;;10.80;4.53;;;6.70;54.70;;;;;;4935341;29;20030;-78
2022/03/06 11:26:24;;;;;;;9.50;5.37;;;6.90;54.70;;;;;;4934833;29;20055;-78
2022/03/06 11:29:27;;;;;;;14.48;5.88;;;7.00;56.40;;;;;;4934121;29;20548;-78
2022/03/06 11:31:55;;;;;;;10.83;5.63;;;7.10;54.70;;;;;;4917006;29;20131;-78
2022/03/06 11:34:27;;;;;;;9.43;5.40;;;7.10;55.40;;;;;;4910169;29;20039;-78
2022/03/06 11:36:54;;;;;;;10.98;5.60;;;7.10;55.50;;;;;;4915400;29;20059;-78
2022/03/06 11:39:31;;;;;;;9.87;5.67;;;7.20;55.00;;;;;;4917699;29;20083;-78
2022/03/06 11:41:59;;;;;;;11.30;5.23;;;7.30;55.20;;;;;;4916958;29;20122;-78
2022/03/06 11:44:57;;;;;;;10.63;5.37;;;7.50;54.00;;;;;;4934707;29;20031;-78
2022/03/06 11:47:35;;;;;;;10.50;5.23;;;7.70;51.70;;;;;;4918437;29;20035;-77
2022/03/06 11:50:01;;;;;;;8.90;5.00;;;7.80;52.60;;;;;;4938264;29;20114;-77
2022/03/06 11:52:41;;;;;;;8.30;4.73;;;7.80;52.90;;;;;;4920607;29;20063;-77
2022/03/06 11:55:33;;;;;;;9.07;4.80;;;7.70;51.70;;;;;;4921364;29;20031;-77
2022/03/06 11:57:59;;;;;;;9.55;5.00;;;7.70;51.00;;;;;;4937678;29;20231;-78
2022/03/06 12:00:29;;;;;;;10.60;4.93;;;7.80;51.60;;;;;;4921098;29;20032;-78
2022/03/06 12:03:00;;;;;;;9.90;6.03;;;7.90;52.20;;;;;;4919486;29;20039;-78
2022/03/06 12:05:46;;;;;;;8.07;5.70;;;8.00;51.40;;;;;;4920985;29;20090;-78
2022/03/06 12:08:13;;;;;;;9.38;5.28;;;8.20;51.30;;;;;;4938505;29;20028;-80
2022/03/06 12:10:40;;;;;;;8.30;5.17;;;8.20;50.70;;;;;;4938151;29;20028;-80
2022/03/06 12:13:17;;;;;;;15.45;8.23;;;8.40;50.90;;;;;;4921005;29;20609;-79
2022/03/06 12:16:06;;;;;;;9.18;5.38;;;8.60;50.70;;;;;;4937776;29;20055;-79
2022/03/06 12:18:32;;;;;;;10.77;5.65;;;8.80;49.40;;;;;;4938835;29;20465;-79
2022/03/06 12:20:58;;;;;;;8.98;5.18;;;8.90;50.40;;;;;;4920664;29;20059;-78
2022/03/06 12:23:29;;;;;;;7.10;4.57;;;9.00;50.10;;;;;;4920900;29;20059;-78
2022/03/06 12:25:57;;;;;;;9.70;5.20;;;9.20;49.10;;;;;;4937727;29;20060;-78
2022/03/06 12:28:31;;;;;;;12.60;5.53;;;9.20;47.50;;;;;;4921266;29;20473;-79
2022/03/06 12:30:57;;;;;;;8.15;4.55;;;9.20;49.60;;;;;;4919880;29;20087;-78
2022/03/06 12:33:34;;;;;;;7.20;4.80;;;9.10;49.20;;;;;;4906359;29;20030;-78
2022/03/06 12:36:30;;;;;;;8.52;4.85;;;9.20;48.40;;;;;;4919906;29;20295;-80
2022/03/06 12:39:03;;;;;;;9.38;4.78;;;8.90;47.10;;;;;;4900871;29;20039;-79
2022/03/06 12:41:29;;;;;;;8.25;4.40;;;8.70;48.80;;;;;;4916287;29;20031;-79
2022/03/06 12:44:08;;;;;;;8.38;4.47;;;8.50;46.70;;;;;;4919149;29;20031;-77
2022/03/06 12:46:34;;;;;;;9.60;4.80;;;8.30;48.20;;;;;;4938411;29;20110;-79
2022/03/06 12:49:00;;;;;;;8.97;4.73;;;8.00;47.30;;;;;;4936780;29;20038;-80
2022/03/06 12:51:28;;;;;;;9.60;5.00;;;7.80;48.30;;;;;;4920291;29;20032;-78